Weather at Keflavik International Airport

Public forecast

Using degrees Celsius for public forecast. Weather courtesy of forecast.io.

Current aviation weather report (METAR) for Keflavik International Airport

Retrieved 2021/04/13 17:00 UTC (9 minutes ago):

BIKF 131700Z 19010KT 9999 FEW022TCU BKN027 08/03 Q1026

Aviation forecast (TAF) for Keflavik International Airport

Retrieved 2021/04/13 15:34 UTC (2 hours ago):

TAF BIKF 131332Z 1315/1415 20010KT 9999 SCT020 BKN030 TX09/1315Z TN04/1406Z TEMPO 1322/1407 4000 -DZ BKN008 TEMPO 1407/1415 SHRA BKN010TCU BECMG 1409/1411 20015G25KT